Da Xian, China
Current Conditions -  °F | °C
As of 11:00 PM on Thursday 18 Dec 2014 (Local Time) from ZUCK Reporting Station
Haze Haze  
Wind Chill:   Ceiling: Unl
Heat Index:   Visibility: 2.5mi
Dew Point:   Wind: 2mph
Humidity: 81%   Direction: NA
Pressure: 30.42"   Gusts: NA
Location:  31.2°N, 107.5°E
Report Text: ZUCK 181500Z VRB01MPS 4000 BR NSC 06/03 Q1030 NOSIG
Loading
Personal Weather Stations






























Interactive Weather Map New forecast layout! Learn more

10-Day Weather Forecast

Advertisements
Track Severe Weather on mobile